Time;durP1;ratioP1;P1;durP2;ratioP2;P2;SDS_P1;SDS_P2;PMS_P1;PMS_P2;Temp;Humidity;BMP_temperature;BMP_pressure;BME280_temperature;BME280_humidity;BME280_pressure;Samples;Min_cycle;Max_cycle;Signal;HPM_P1;HPM_P2
2022/10/26 00:01:44;;;;;;;3.25;2.95;;;16.10;56.40;;;;;;20450;6884;308900;-90
2022/10/26 00:04:10;;;;;;;11.20;2.95;;;16.40;56.10;;;;;;20457;6884;309001;-87
2022/10/26 00:06:35;;;;;;;7.30;2.80;;;16.60;55.60;;;;;;20400;6884;313591;-87
2022/10/26 00:09:01;;;;;;;4.05;2.37;;;16.70;55.00;;;;;;20665;6884;117142;-90
2022/10/26 00:11:26;;;;;;;4.73;3.00;;;16.50;55.40;;;;;;20403;6884;310026;-89
2022/10/26 00:13:52;;;;;;;3.37;2.72;;;16.50;55.30;;;;;;20633;6884;116876;-87
2022/10/26 00:16:21;;;;;;;4.90;3.15;;;16.30;55.80;;;;;;20416;6884;338173;-86
2022/10/26 00:18:46;;;;;;;3.67;2.53;;;16.30;55.80;;;;;;20625;6882;116930;-87
2022/10/26 00:21:12;;;;;;;4.87;3.00;;;16.20;56.10;;;;;;20421;6883;280142;-88
2022/10/26 00:23:38;;;;;;;3.57;2.63;;;16.20;56.40;;;;;;20618;6883;117426;-87
2022/10/26 00:26:04;;;;;;;3.93;2.40;;;16.20;56.40;;;;;;20625;6883;117613;-87
2022/10/26 00:28:31;;;;;;;6.37;2.90;;;16.00;56.90;;;;;;20410;6883;338753;-87
2022/10/26 00:31:07;;;;;;;3.92;2.72;;;16.10;56.40;;;;;;20414;6883;298053;-87
2022/10/26 00:33:32;;;;;;;2.80;2.30;;;16.40;56.00;;;;;;20585;6883;134490;-87
2022/10/26 00:35:58;;;;;;;3.67;2.80;;;16.30;56.00;;;;;;20414;6883;312235;-87
2022/10/26 00:38:24;;;;;;;5.23;2.70;;;16.40;56.00;;;;;;20620;6884;117730;-87
2022/10/26 00:40:49;;;;;;;2.77;2.50;;;16.30;56.20;;;;;;20613;6884;120754;-89
2022/10/26 00:43:18;;;;;;;3.57;2.70;;;16.10;56.70;;;;;;20402;6884;339836;-87
2022/10/26 00:45:44;;;;;;;5.60;2.87;;;16.10;56.60;;;;;;20398;6884;280161;-90
2022/10/26 00:48:16;;;;;;;4.50;3.10;;;16.40;56.00;;;;;;20396;6884;310553;-87
2022/10/26 00:50:42;;;;;;;4.87;2.63;;;16.60;55.40;;;;;;20276;6884;308331;-87
2022/10/26 00:53:08;;;;;;;3.80;2.30;;;16.60;55.40;;;;;;20608;6884;119345;-86
2022/10/26 00:55:34;;;;;;;2.90;2.60;;;16.60;55.40;;;;;;20387;6884;280621;-87
2022/10/26 00:57:59;;;;;;;6.47;2.90;;;16.60;55.30;;;;;;20606;6884;119815;-87
2022/10/26 01:00:25;;;;;;;4.70;2.50;;;16.40;55.70;;;;;;20390;6884;344444;-90
2022/10/26 01:02:50;;;;;;;3.03;2.50;;;16.50;55.70;;;;;;20401;6884;284436;-87
2022/10/26 01:05:16;;;;;;;2.93;2.73;;;16.70;55.30;;;;;;20390;6884;312986;-88
2022/10/26 01:07:41;;;;;;;2.80;2.25;;;16.90;54.90;;;;;;20608;6884;117528;-87
2022/10/26 01:10:07;;;;;;;3.12;2.70;;;16.80;55.20;;;;;;20603;6884;117578;-90
2022/10/26 01:12:34;;;;;;;2.87;2.67;;;16.20;56.40;;;;;;20601;6884;117827;-87
2022/10/26 01:14:59;;;;;;;4.53;2.80;;;16.20;56.40;;;;;;20395;6884;310168;-90
2022/10/26 01:17:58;;;;;;;2.90;2.70;;;16.40;56.30;;;;;;20589;6884;118156;-91
2022/10/26 01:20:46;;;;;;;3.63;2.70;;;16.30;56.40;;;;;;20607;6884;117520;-90
2022/10/26 01:23:15;;;;;;;3.97;2.83;;;16.00;56.90;;;;;;19902;6884;119804;-88
2022/10/26 01:26:04;;;;;;;4.40;2.90;;;15.90;57.80;;;;;;20363;6884;280345;-87
2022/10/26 01:28:53;;;;;;;3.50;3.13;;;15.90;57.70;;;;;;20406;6884;310178;-88
2022/10/26 01:31:22;;;;;;;3.47;3.17;;;16.50;57.80;;;;;;20200;6883;309423;-86
2022/10/26 01:33:48;;;;;;;4.40;3.12;;;16.50;57.10;;;;;;20312;6883;284642;-86
2022/10/26 01:36:20;;;;;;;3.80;3.20;;;16.70;57.00;;;;;;20389;6883;280547;-89
2022/10/26 01:38:46;;;;;;;3.67;3.37;;;16.90;56.40;;;;;;20373;6883;300089;-86
2022/10/26 01:41:28;;;;;;;3.30;3.00;;;16.90;56.40;;;;;;20582;6883;120475;-86
2022/10/26 01:43:54;;;;;;;3.67;2.80;;;16.70;56.80;;;;;;20599;6883;117791;-86
2022/10/26 01:46:19;;;;;;;3.55;2.30;;;16.30;57.60;;;;;;20605;6883;117588;-86
2022/10/26 01:48:45;;;;;;;5.90;2.70;;;16.00;58.30;;;;;;20391;6883;309028;-89
2022/10/26 01:51:10;;;;;;;5.13;3.07;;;16.10;58.30;;;;;;20385;6884;315102;-89
2022/10/26 01:53:37;;;;;;;7.72;3.00;;;16.50;57.70;;;;;;20374;6884;310915;-88
2022/10/26 01:56:03;;;;;;;5.20;3.00;;;16.60;56.80;;;;;;20381;6884;326025;-86
2022/10/26 01:58:35;;;;;;;3.43;3.03;;;16.60;56.80;;;;;;20611;6884;117430;-86
2022/10/26 02:01:17;;;;;;;5.23;3.30;;;16.40;57.00;;;;;;19862;6898;119322;-86
2022/10/26 02:04:03;;;;;;;2.80;2.53;;;15.90;57.60;;;;;;20544;6898;118178;-86
2022/10/26 02:06:39;;;;;;;3.23;3.00;;;15.60;58.40;;;;;;20566;6898;117647;-86
2022/10/26 02:09:44;;;;;;;7.67;3.33;;;15.30;59.00;;;;;;20556;6898;117901;-87
2022/10/26 02:12:10;;;;;;;4.93;2.73;;;15.00;59.40;;;;;;20538;6907;117986;-86
2022/10/26 02:14:35;;;;;;;6.20;3.00;;;14.80;59.80;;;;;;20291;6916;285053;-86
2022/10/26 02:17:07;;;;;;;3.57;3.03;;;15.10;60.50;;;;;;20267;6914;279812;-88
2022/10/26 02:19:43;;;;;;;4.40;3.10;;;15.50;59.90;;;;;;20293;6898;310529;-88
2022/10/26 02:22:28;;;;;;;7.73;3.63;;;15.80;58.60;;;;;;20511;6911;123889;-86
2022/10/26 02:24:55;;;;;;;4.32;3.60;;;15.80;58.60;;;;;;20284;6916;310728;-89
2022/10/26 02:27:24;;;;;;;4.07;3.67;;;15.80;58.30;;;;;;20505;6912;119467;-86
2022/10/26 02:29:50;;;;;;;4.35;3.55;;;15.70;58.50;;;;;;20283;6912;343840;-87
2022/10/26 02:32:15;;;;;;;4.10;3.03;;;15.80;58.40;;;;;;20546;6901;117492;-89
2022/10/26 02:34:41;;;;;;;3.53;3.33;;;15.80;58.70;;;;;;20547;6901;117605;-89
2022/10/26 02:37:06;;;;;;;4.07;3.60;;;15.50;59.10;;;;;;20328;6901;312491;-86
2022/10/26 02:39:32;;;;;;;4.32;3.70;;;15.60;59.20;;;;;;20320;6901;309659;-87
2022/10/26 02:41:58;;;;;;;5.53;3.40;;;15.80;58.20;;;;;;20554;6899;118013;-86
2022/10/26 02:44:26;;;;;;;4.30;3.20;;;15.80;58.10;;;;;;20319;6901;279986;-91
2022/10/26 02:46:52;;;;;;;5.25;3.30;;;15.90;58.10;;;;;;20346;6901;310014;-88
2022/10/26 02:49:17;;;;;;;3.53;3.00;;;16.10;57.80;;;;;;20318;6901;340246;-86
2022/10/26 02:51:56;;;;;;;5.73;3.20;;;16.30;57.90;;;;;;20350;6901;309312;-87
2022/10/26 02:54:32;;;;;;;5.37;3.22;;;16.40;57.70;;;;;;20351;6901;299896;-86
2022/10/26 02:57:00;;;;;;;4.23;2.63;;;16.50;57.40;;;;;;20555;6901;118414;-86
2022/10/26 02:59:27;;;;;;;3.53;2.80;;;15.90;58.80;;;;;;20528;6901;121099;-87
2022/10/26 03:01:52;;;;;;;4.07;3.00;;;15.90;58.80;;;;;;20338;6901;294665;-86
2022/10/26 03:04:18;;;;;;;6.53;3.10;;;16.00;59.30;;;;;;20345;6901;306957;-86
2022/10/26 03:06:50;;;;;;;5.07;3.17;;;16.40;57.80;;;;;;20346;6901;309761;-86
2022/10/26 03:09:16;;;;;;;4.17;2.97;;;16.40;57.80;;;;;;20547;6901;121843;-86
2022/10/26 03:11:41;;;;;;;5.93;3.13;;;16.20;57.90;;;;;;20546;6901;117851;-90
2022/10/26 03:14:07;;;;;;;3.47;3.03;;;15.90;58.60;;;;;;20562;6901;119985;-89
2022/10/26 03:16:33;;;;;;;5.87;3.40;;;15.60;59.20;;;;;;20354;6901;280390;-87
2022/10/26 03:18:58;;;;;;;4.87;3.20;;;15.70;59.20;;;;;;20347;6901;279734;-86
2022/10/26 03:21:24;;;;;;;5.18;3.50;;;16.00;58.70;;;;;;20521;6901;128712;-87
2022/10/26 03:23:50;;;;;;;3.73;3.47;;;15.90;58.70;;;;;;20571;6901;117668;-89
2022/10/26 03:26:15;;;;;;;5.70;4.12;;;15.50;59.10;;;;;;20350;6901;339158;-86
2022/10/26 03:28:41;;;;;;;5.43;4.10;;;15.90;58.80;;;;;;20355;6901;309386;-87
2022/10/26 03:31:08;;;;;;;4.20;3.80;;;16.00;58.10;;;;;;20350;6901;280138;-90
2022/10/26 03:33:33;;;;;;;7.50;4.07;;;16.10;58.40;;;;;;20339;6901;295649;-86
2022/10/26 03:35:59;;;;;;;4.60;4.00;;;16.20;57.90;;;;;;20348;6901;309843;-87
2022/10/26 03:38:24;;;;;;;4.20;3.90;;;16.30;57.30;;;;;;20573;6901;118653;-88
2022/10/26 03:40:50;;;;;;;6.03;4.70;;;16.10;57.70;;;;;;20350;6901;313922;-87
2022/10/26 03:43:16;;;;;;;8.10;4.25;;;16.00;57.90;;;;;;20562;6901;117521;-85
2022/10/26 03:45:41;;;;;;;5.80;4.50;;;15.90;58.30;;;;;;20310;6901;314828;-85
2022/10/26 03:48:07;;;;;;;5.15;4.62;;;15.90;58.50;;;;;;20328;6901;280468;-87
2022/10/26 03:50:33;;;;;;;5.40;4.70;;;16.00;58.40;;;;;;20554;6901;119031;-86
2022/10/26 03:52:59;;;;;;;5.40;4.80;;;15.90;58.20;;;;;;20345;6900;280054;-86
2022/10/26 03:55:24;;;;;;;6.37;4.78;;;16.00;58.40;;;;;;20329;6900;310173;-88
2022/10/26 03:57:51;;;;;;;4.63;4.23;;;15.90;58.20;;;;;;20552;6901;117857;-88
2022/10/26 04:00:16;;;;;;;6.47;4.70;;;16.00;58.30;;;;;;20346;6901;338116;-85
2022/10/26 04:02:42;;;;;;;6.62;5.03;;;16.00;58.50;;;;;;20338;6901;342599;-86
2022/10/26 04:05:08;;;;;;;4.80;4.40;;;16.10;58.20;;;;;;20554;6901;122691;-89
2022/10/26 04:07:33;;;;;;;7.27;5.00;;;16.00;58.40;;;;;;20324;6901;280303;-91
2022/10/26 04:09:59;;;;;;;5.60;4.77;;;15.90;58.20;;;;;;20549;6901;118798;-86
2022/10/26 04:12:25;;;;;;;5.60;4.97;;;15.60;59.70;;;;;;20345;6901;280184;-84
2022/10/26 04:14:51;;;;;;;8.20;5.57;;;15.60;59.60;;;;;;20541;6901;118320;-85
2022/10/26 04:17:16;;;;;;;4.45;4.15;;;15.40;60.00;;;;;;20514;6901;121934;-90
2022/10/26 04:19:42;;;;;;;4.83;4.43;;;15.10;60.80;;;;;;20506;6904;124727;-90
2022/10/26 04:22:07;;;;;;;6.43;4.90;;;14.90;61.60;;;;;;20545;6905;118098;-89
2022/10/26 04:24:33;;;;;;;5.85;4.60;;;14.70;62.20;;;;;;20336;6907;342053;-88
2022/10/26 04:27:00;;;;;;;5.07;4.57;;;14.80;62.90;;;;;;20553;6906;118139;-89
2022/10/26 04:29:25;;;;;;;5.40;4.10;;;14.80;62.60;;;;;;20521;6906;118062;-89
2022/10/26 04:31:51;;;;;;;5.68;4.72;;;14.70;63.00;;;;;;20291;6906;280435;-90
2022/10/26 04:34:17;;;;;;;5.00;4.53;;;14.90;62.60;;;;;;20542;6906;117399;-89
2022/10/26 04:36:59;;;;;;;7.67;4.43;;;14.80;62.50;;;;;;20541;6906;117426;-91
2022/10/26 04:39:28;;;;;;;3.97;3.67;;;14.70;62.90;;;;;;20513;6906;118649;-88
2022/10/26 04:41:53;;;;;;;5.10;3.93;;;14.60;63.50;;;;;;20528;6906;117743;-90
2022/10/26 04:44:19;;;;;;;4.80;4.03;;;14.50;63.90;;;;;;20538;6906;122492;-91
2022/10/26 04:46:44;;;;;;;5.40;4.40;;;14.40;64.20;;;;;;20328;6906;309702;-89
2022/10/26 04:49:10;;;;;;;8.97;8.07;;;14.70;63.80;;;;;;20332;6906;278787;-89
2022/10/26 04:51:36;;;;;;;4.83;4.33;;;15.20;62.60;;;;;;20522;6906;118105;-87
2022/10/26 04:54:02;;;;;;;4.47;3.70;;;15.20;62.30;;;;;;20544;6906;117723;-86
2022/10/26 04:56:27;;;;;;;4.33;4.03;;;15.00;62.60;;;;;;20350;6906;283126;-86
2022/10/26 04:58:53;;;;;;;3.90;3.70;;;15.20;62.80;;;;;;20527;6906;117535;-86
2022/10/26 05:01:18;;;;;;;4.33;4.10;;;15.20;62.60;;;;;;20319;6906;279344;-86
2022/10/26 05:03:43;;;;;;;4.37;4.00;;;15.40;62.30;;;;;;20181;6906;312556;-86
2022/10/26 05:06:10;;;;;;;4.83;3.90;;;15.60;61.40;;;;;;20558;6904;117476;-87
2022/10/26 05:08:36;;;;;;;4.62;3.78;;;15.50;61.30;;;;;;20333;6906;340238;-87
2022/10/26 05:11:01;;;;;;;4.30;4.00;;;15.60;60.60;;;;;;20321;6906;291020;-89
2022/10/26 05:13:27;;;;;;;5.45;3.83;;;15.80;59.90;;;;;;20302;6906;279826;-89
2022/10/26 05:15:53;;;;;;;4.65;3.90;;;16.10;59.20;;;;;;20318;6902;309887;-88
2022/10/26 05:18:19;;;;;;;3.97;3.63;;;16.00;59.10;;;;;;20366;6902;310924;-88
2022/10/26 05:20:44;;;;;;;5.32;3.78;;;16.20;59.00;;;;;;20349;6897;310059;-89
2022/10/26 05:23:10;;;;;;;4.00;3.17;;;16.00;59.10;;;;;;20571;6897;118394;-89
2022/10/26 05:25:36;;;;;;;3.13;2.70;;;16.00;59.10;;;;;;20545;6897;123252;-90
2022/10/26 05:28:02;;;;;;;3.60;3.00;;;15.60;60.00;;;;;;20561;6897;117763;-89
2022/10/26 05:30:27;;;;;;;3.20;2.90;;;15.40;61.00;;;;;;20343;6897;309018;-89
2022/10/26 05:32:53;;;;;;;3.30;3.00;;;15.50;61.00;;;;;;20359;6897;278774;-88
2022/10/26 05:35:18;;;;;;;2.97;2.50;;;15.80;60.60;;;;;;20552;6897;117580;-90
2022/10/26 05:37:44;;;;;;;4.30;2.77;;;15.80;60.50;;;;;;20386;6897;279320;-90
2022/10/26 05:40:10;;;;;;;2.83;2.50;;;15.90;60.00;;;;;;20572;6897;118237;-93
2022/10/26 05:42:35;;;;;;;2.70;2.50;;;15.90;60.20;;;;;;20569;6897;118053;-90
2022/10/26 05:45:01;;;;;;;4.17;2.50;;;15.60;60.60;;;;;;20356;6897;307998;-89
2022/10/26 05:47:27;;;;;;;2.83;2.50;;;15.80;60.10;;;;;;20521;6897;117821;-88
2022/10/26 05:49:54;;;;;;;3.12;2.83;;;15.90;60.10;;;;;;20352;6897;308906;-90
2022/10/26 05:52:19;;;;;;;3.40;2.50;;;15.90;60.10;;;;;;20573;6897;118010;-89
2022/10/26 05:54:45;;;;;;;2.72;2.53;;;15.90;60.30;;;;;;20357;6897;338429;-91
2022/10/26 05:57:10;;;;;;;4.07;2.60;;;16.00;60.00;;;;;;20569;6897;122526;-88
2022/10/26 05:59:36;;;;;;;2.50;2.20;;;16.00;60.10;;;;;;20540;6897;118895;-89
2022/10/26 06:02:18;;;;;;;4.43;2.30;;;15.80;61.10;;;;;;20561;6897;118031;-91
2022/10/26 06:04:46;;;;;;;3.07;2.30;;;15.60;61.00;;;;;;20536;6897;117574;-90
2022/10/26 06:07:10;;;;;;;3.87;2.40;;;15.40;61.90;;;;;;20557;6897;118269;-92
2022/10/26 06:09:37;;;;;;;3.97;2.40;;;15.60;61.90;;;;;;20332;6897;282087;-88
2022/10/26 06:12:02;;;;;;;4.30;3.00;;;15.60;61.80;;;;;;20353;6897;281206;-88
2022/10/26 06:14:29;;;;;;;5.00;2.90;;;16.30;60.60;;;;;;20349;6897;311867;-91
2022/10/26 06:17:18;;;;;;;3.33;2.83;;;16.30;60.20;;;;;;20568;6895;121625;-88
2022/10/26 06:19:49;;;;;;;3.40;3.10;;;16.20;60.10;;;;;;20131;6897;309578;-92
2022/10/26 06:22:42;;;;;;;3.10;2.90;;;16.10;60.20;;;;;;20553;6897;117723;-92
2022/10/26 06:25:27;;;;;;;3.17;2.87;;;16.10;60.20;;;;;;20566;6897;121446;-93
2022/10/26 06:28:13;;;;;;;3.33;2.90;;;15.80;60.90;;;;;;20356;6897;308612;-88
2022/10/26 06:30:38;;;;;;;3.17;2.97;;;16.00;61.00;;;;;;19971;6897;121429;-89
2022/10/26 06:33:04;;;;;;;4.20;3.10;;;15.90;61.00;;;;;;20355;6897;307791;-92
2022/10/26 06:35:39;;;;;;;4.37;3.80;;;16.10;61.30;;;;;;20343;6897;283366;-88
2022/10/26 06:38:08;;;;;;;4.80;3.33;;;16.40;60.30;;;;;;20563;6897;122608;-91
2022/10/26 06:40:34;;;;;;;3.80;2.93;;;16.30;60.30;;;;;;20548;6897;120339;-88
2022/10/26 06:43:00;;;;;;;6.20;2.80;;;16.10;60.90;;;;;;20559;6897;118064;-91
2022/10/26 06:45:25;;;;;;;2.87;2.57;;;15.90;61.50;;;;;;20546;6897;118740;-89
2022/10/26 06:47:51;;;;;;;3.80;2.50;;;15.80;62.00;;;;;;20271;6897;316510;-91
2022/10/26 06:50:30;;;;;;;3.00;2.53;;;16.10;61.70;;;;;;20344;6897;307838;-90
2022/10/26 06:53:29;;;;;;;5.27;3.03;;;16.40;61.10;;;;;;20354;6897;308457;-84
2022/10/26 06:55:55;;;;;;;3.83;2.63;;;16.80;60.40;;;;;;20352;6897;303443;-91
2022/10/26 06:58:20;;;;;;;3.15;2.00;;;17.10;59.90;;;;;;20558;6897;118236;-89
2022/10/26 07:00:49;;;;;;;2.87;2.40;;;17.00;60.10;;;;;;20529;6897;119698;-90
2022/10/26 07:03:15;;;;;;;3.33;2.20;;;16.80;60.70;;;;;;20553;6897;120992;-89
2022/10/26 07:05:41;;;;;;;3.73;2.50;;;16.70;60.90;;;;;;20340;6897;278524;-89
2022/10/26 07:08:08;;;;;;;3.35;2.33;;;16.70;60.90;;;;;;20358;6897;308881;-87
2022/10/26 07:10:37;;;;;;;2.97;2.20;;;17.10;60.40;;;;;;20577;6897;118558;-87
2022/10/26 07:12:59;;;;;;;3.03;2.40;;;17.20;60.70;;;;;;20361;6897;314115;-88
2022/10/26 07:15:25;;;;;;;4.87;2.53;;;17.40;60.70;;;;;;20350;6897;278992;-87
2022/10/26 07:17:51;;;;;;;3.87;3.40;;;17.70;60.70;;;;;;20362;6897;292466;-89
2022/10/26 07:20:17;;;;;;;5.67;3.70;;;17.90;60.40;;;;;;20363;6897;308813;-87
2022/10/26 07:22:43;;;;;;;4.32;3.10;;;18.10;59.00;;;;;;20359;6897;338062;-91
2022/10/26 07:25:08;;;;;;;6.03;2.87;;;18.40;58.70;;;;;;20569;6897;119705;-88
2022/10/26 07:27:34;;;;;;;4.97;3.10;;;18.20;59.00;;;;;;20331;6895;304095;-88
2022/10/26 07:30:00;;;;;;;2.53;2.33;;;18.50;59.00;;;;;;20362;6896;306484;-88
2022/10/26 07:32:26;;;;;;;3.62;2.50;;;18.40;58.80;;;;;;20343;6897;338483;-89
2022/10/26 07:34:51;;;;;;;4.33;2.43;;;18.80;58.80;;;;;;20565;6897;118847;-90
2022/10/26 07:37:17;;;;;;;2.87;2.30;;;18.80;59.10;;;;;;20560;6897;123591;-88
2022/10/26 07:39:42;;;;;;;3.17;2.57;;;18.70;59.50;;;;;;20562;6897;118148;-90
2022/10/26 07:42:08;;;;;;;4.28;2.30;;;18.60;60.00;;;;;;20585;6897;117972;-89
2022/10/26 07:44:33;;;;;;;5.30;2.40;;;18.60;60.50;;;;;;20564;6897;121546;-89
2022/10/26 07:46:59;;;;;;;3.60;2.80;;;18.60;60.60;;;;;;20561;6897;117984;-89
2022/10/26 07:49:24;;;;;;;5.37;3.03;;;18.60;60.70;;;;;;20333;6897;308286;-88
2022/10/26 07:51:50;;;;;;;4.37;3.30;;;18.90;59.60;;;;;;20354;6897;279599;-90
2022/10/26 07:54:16;;;;;;;3.22;2.97;;;19.30;58.50;;;;;;20565;6897;117469;-89
2022/10/26 07:56:41;;;;;;;5.20;3.28;;;19.30;58.40;;;;;;20353;6897;309564;-89
2022/10/26 07:59:07;;;;;;;6.00;3.07;;;19.30;57.50;;;;;;20565;6897;117443;-89
2022/10/26 08:01:34;;;;;;;3.60;2.72;;;19.30;57.60;;;;;;20323;6897;283299;-89
2022/10/26 08:03:59;;;;;;;3.20;2.53;;;19.30;57.60;;;;;;20564;6897;117607;-89
2022/10/26 08:06:24;;;;;;;4.37;2.93;;;19.30;58.10;;;;;;20360;6897;278939;-90
2022/10/26 08:08:50;;;;;;;3.40;2.70;;;19.50;57.20;;;;;;20360;6897;316445;-88
2022/10/26 08:11:15;;;;;;;4.80;3.10;;;19.80;56.30;;;;;;20359;6897;307971;-88
2022/10/26 08:13:41;;;;;;;4.40;2.93;;;19.90;56.30;;;;;;20347;6897;304777;-90
2022/10/26 08:16:07;;;;;;;6.27;3.00;;;20.10;56.00;;;;;;20355;6897;333025;-91
2022/10/26 08:18:34;;;;;;;6.65;3.40;;;20.10;55.90;;;;;;20352;6897;319044;-90
2022/10/26 08:21:06;;;;;;;5.97;3.10;;;20.10;55.90;;;;;;20569;6897;123378;-91
2022/10/26 08:23:32;;;;;;;6.30;3.40;;;19.70;57.00;;;;;;20325;6897;312971;-89
2022/10/26 08:25:58;;;;;;;5.23;3.27;;;19.70;57.50;;;;;;20354;6897;284083;-91
2022/10/26 08:28:23;;;;;;;6.18;3.22;;;19.70;56.80;;;;;;20336;6897;342124;-87
2022/10/26 08:30:49;;;;;;;3.60;3.30;;;19.80;56.90;;;;;;20562;6897;117628;-90
2022/10/26 08:33:14;;;;;;;6.30;3.57;;;19.60;57.40;;;;;;20564;6897;117739;-89
2022/10/26 08:35:40;;;;;;;4.97;3.50;;;19.20;58.20;;;;;;20334;6897;336179;-87
2022/10/26 08:38:05;;;;;;;4.17;2.93;;;19.20;58.00;;;;;;20567;6897;117529;-90
2022/10/26 08:40:31;;;;;;;4.68;3.42;;;19.10;58.30;;;;;;20359;6895;308664;-87
2022/10/26 08:43:07;;;;;;;4.20;3.33;;;19.10;57.90;;;;;;20350;6896;309356;-88
2022/10/26 08:45:33;;;;;;;7.27;3.43;;;19.20;58.00;;;;;;20526;6897;118482;-89
2022/10/26 08:47:58;;;;;;;5.97;3.13;;;19.20;58.00;;;;;;20557;6897;117793;-86
2022/10/26 08:50:30;;;;;;;5.82;3.50;;;18.90;58.60;;;;;;20350;6897;280462;-87
2022/10/26 08:53:03;;;;;;;3.57;3.03;;;19.00;58.70;;;;;;20557;6897;120701;-89
2022/10/26 08:55:37;;;;;;;3.47;2.80;;;18.90;58.80;;;;;;20529;6897;118717;-88
2022/10/26 08:58:03;;;;;;;3.53;2.77;;;18.80;59.30;;;;;;20541;6897;117785;-85
2022/10/26 09:00:28;;;;;;;4.50;3.30;;;18.70;59.90;;;;;;20561;6897;119249;-87
2022/10/26 09:02:55;;;;;;;5.00;3.07;;;18.60;60.50;;;;;;20571;6897;124139;-86
2022/10/26 09:05:27;;;;;;;3.63;3.20;;;18.60;60.50;;;;;;20467;6897;118061;-89
2022/10/26 09:08:09;;;;;;;3.87;3.30;;;18.60;60.70;;;;;;19804;6897;301941;-90
2022/10/26 09:10:58;;;;;;;5.62;3.30;;;18.90;60.10;;;;;;20343;6897;337084;-88
2022/10/26 09:13:27;;;;;;;3.50;2.83;;;19.40;58.50;;;;;;20513;6897;118653;-87
2022/10/26 09:16:19;;;;;;;3.33;2.93;;;19.50;58.40;;;;;;20551;6897;117607;-87
2022/10/26 09:18:46;;;;;;;4.20;2.90;;;19.40;58.80;;;;;;20578;6897;117813;-89
2022/10/26 09:21:39;;;;;;;3.40;2.97;;;19.20;59.30;;;;;;20356;6897;278649;-86
2022/10/26 09:24:13;;;;;;;5.82;3.40;;;19.40;58.50;;;;;;19675;6897;337854;-86
2022/10/26 09:26:58;;;;;;;4.30;3.00;;;19.70;58.00;;;;;;20548;6897;117338;-87
2022/10/26 09:29:26;;;;;;;5.22;3.10;;;19.70;58.20;;;;;;20323;6897;341237;-87
2022/10/26 09:31:52;;;;;;;5.80;3.03;;;19.80;57.60;;;;;;20549;6897;117514;-88
2022/10/26 09:34:17;;;;;;;3.73;3.30;;;19.80;58.00;;;;;;20343;6897;278639;-88
2022/10/26 09:36:43;;;;;;;4.07;3.17;;;19.90;57.60;;;;;;20049;6897;309356;-89
2022/10/26 09:39:09;;;;;;;3.50;3.20;;;20.00;57.20;;;;;;20568;6897;117400;-87
2022/10/26 09:41:38;;;;;;;3.00;2.80;;;20.00;57.20;;;;;;20526;6897;118308;-87
2022/10/26 09:44:10;;;;;;;3.83;3.12;;;19.70;57.70;;;;;;20346;6897;280222;-86
2022/10/26 09:46:55;;;;;;;3.70;3.17;;;19.70;57.70;;;;;;20144;6897;123476;-88
2022/10/26 09:49:21;;;;;;;4.13;2.50;;;19.70;58.40;;;;;;19998;6897;120158;-88
2022/10/26 09:51:47;;;;;;;2.80;2.57;;;19.60;59.00;;;;;;20548;6895;118695;-88
2022/10/26 09:54:16;;;;;;;3.87;2.53;;;19.50;59.20;;;;;;20565;6896;117487;-89
2022/10/26 09:56:45;;;;;;;4.77;2.70;;;19.20;59.50;;;;;;20536;6897;117899;-88
2022/10/26 09:59:10;;;;;;;3.17;2.73;;;19.20;59.50;;;;;;20490;6897;118655;-90
2022/10/26 10:01:36;;;;;;;4.63;2.60;;;19.20;60.10;;;;;;20537;6897;117941;-87
2022/10/26 10:04:05;;;;;;;5.35;3.12;;;19.20;60.50;;;;;;20323;6897;308306;-86
2022/10/26 10:06:30;;;;;;;4.60;2.90;;;19.50;59.80;;;;;;20352;6897;117769;-88
2022/10/26 10:09:09;;;;;;;6.55;3.10;;;19.70;59.90;;;;;;20286;6897;278951;-86
2022/10/26 10:11:38;;;;;;;5.27;3.03;;;20.20;59.90;;;;;;20277;6897;278797;-88
2022/10/26 10:14:07;;;;;;;4.68;2.60;;;20.80;58.90;;;;;;20285;6897;314705;-86
2022/10/26 10:16:32;;;;;;;2.67;2.37;;;21.40;56.80;;;;;;20525;6897;120458;-87
2022/10/26 10:18:58;;;;;;;4.43;2.20;;;21.60;56.70;;;;;;20340;6897;324792;-86
2022/10/26 10:21:42;;;;;;;4.43;2.30;;;21.80;54.50;;;;;;20532;6897;118776;-87
2022/10/26 10:24:25;;;;;;;7.00;2.60;;;21.90;54.90;;;;;;20553;6897;117445;-87
2022/10/26 10:26:58;;;;;;;4.60;2.92;;;22.10;54.10;;;;;;20354;6897;307658;-87
2022/10/26 10:29:23;;;;;;;10.40;3.15;;;22.10;54.10;;;;;;20048;6897;323392;-86
2022/10/26 10:31:59;;;;;;;3.93;2.73;;;22.60;54.00;;;;;;20562;6897;122280;-88
2022/10/26 10:34:26;;;;;;;3.10;2.80;;;22.70;52.00;;;;;;20362;6897;309043;-87
2022/10/26 10:36:53;;;;;;;4.93;2.43;;;22.60;52.70;;;;;;20560;6897;117608;-87
2022/10/26 10:39:39;;;;;;;3.97;2.60;;;22.60;52.60;;;;;;20349;6897;308026;-86
2022/10/26 10:42:04;;;;;;;3.10;2.70;;;22.70;52.00;;;;;;20569;6897;117554;-88
2022/10/26 10:44:30;;;;;;;4.53;2.70;;;22.70;52.90;;;;;;20540;6897;117957;-86
2022/10/26 10:47:02;;;;;;;4.80;2.60;;;22.50;53.30;;;;;;20555;6897;123514;-86
2022/10/26 10:49:27;;;;;;;6.93;2.70;;;22.40;53.50;;;;;;20329;6897;308584;-87
2022/10/26 10:51:54;;;;;;;6.55;2.90;;;22.50;52.30;;;;;;20567;6897;118075;-86
2022/10/26 10:54:19;;;;;;;2.83;2.13;;;22.50;52.20;;;;;;20546;6897;117617;-85
2022/10/26 10:57:11;;;;;;;5.53;2.57;;;22.30;52.50;;;;;;20299;6897;303213;-87
2022/10/26 10:59:49;;;;;;;4.93;2.60;;;22.30;50.80;;;;;;20323;6897;283065;-85
2022/10/26 11:02:35;;;;;;;4.60;2.47;;;22.60;50.80;;;;;;20563;6895;117930;-85
2022/10/26 11:05:07;;;;;;;4.10;2.00;;;22.40;51.40;;;;;;20580;6896;119158;-87
2022/10/26 11:07:32;;;;;;;6.10;2.70;;;22.20;51.80;;;;;;20323;6897;320208;-87
2022/10/26 11:09:59;;;;;;;4.17;2.30;;;22.20;50.70;;;;;;20546;6897;117728;-88
2022/10/26 11:12:25;;;;;;;2.80;2.27;;;21.90;52.00;;;;;;20570;6897;118091;-86
2022/10/26 11:14:54;;;;;;;4.10;2.20;;;21.90;52.40;;;;;;20573;6897;122936;-85
2022/10/26 11:17:20;;;;;;;7.20;2.75;;;21.70;52.40;;;;;;20329;6897;305988;-85
2022/10/26 11:19:48;;;;;;;4.43;2.57;;;21.90;51.80;;;;;;20356;6897;309650;-86
2022/10/26 11:22:14;;;;;;;2.80;2.40;;;22.20;51.10;;;;;;20560;6897;119459;-85
2022/10/26 11:24:43;;;;;;;4.30;2.80;;;22.30;51.70;;;;;;20365;6897;279729;-85
2022/10/26 11:27:35;;;;;;;7.43;2.70;;;22.40;51.10;;;;;;20571;6897;117326;-87
2022/10/26 11:30:00;;;;;;;3.60;2.60;;;22.40;51.30;;;;;;20490;6897;120580;-85
2022/10/26 11:32:29;;;;;;;3.17;2.27;;;22.20;51.90;;;;;;20571;6897;118296;-87
2022/10/26 11:35:05;;;;;;;4.87;2.40;;;22.00;52.10;;;;;;20320;6897;279236;-86
2022/10/26 11:37:36;;;;;;;5.40;2.43;;;22.20;51.30;;;;;;20544;6897;127308;-88
2022/10/26 11:40:35;;;;;;;3.35;2.40;;;22.30;52.10;;;;;;20331;6897;279961;-86
2022/10/26 11:43:18;;;;;;;5.10;2.57;;;22.50;51.00;;;;;;20358;6897;309227;-84
2022/10/26 11:45:43;;;;;;;6.07;2.70;;;22.90;50.60;;;;;;19574;6897;280335;-87
2022/10/26 11:48:15;;;;;;;7.82;2.80;;;23.20;50.90;;;;;;20308;6897;310261;-86
2022/10/26 11:50:44;;;;;;;5.20;2.60;;;23.50;49.50;;;;;;20517;6897;121580;-83
2022/10/26 11:53:17;;;;;;;4.87;2.73;;;23.40;50.40;;;;;;20338;6897;308928;-88
2022/10/26 11:55:42;;;;;;;6.20;2.80;;;23.40;50.00;;;;;;20331;6897;279581;-85
2022/10/26 11:58:09;;;;;;;2.73;2.43;;;23.60;49.30;;;;;;20557;6897;117982;-84
2022/10/26 12:00:34;;;;;;;8.63;2.65;;;23.50;49.70;;;;;;20355;6897;337513;-88
2022/10/26 12:03:07;;;;;;;4.87;2.60;;;23.60;49.30;;;;;;20314;6897;280266;-86
2022/10/26 12:05:39;;;;;;;4.50;2.30;;;23.80;48.50;;;;;;20488;6897;117525;-88
2022/10/26 12:08:04;;;;;;;4.28;2.40;;;23.70;49.00;;;;;;20359;6897;335529;-88
2022/10/26 12:10:31;;;;;;;4.83;2.07;;;23.60;48.60;;;;;;20553;6897;118087;-90
2022/10/26 12:12:56;;;;;;;5.35;2.40;;;23.50;48.50;;;;;;20343;6897;338215;-84
2022/10/26 12:15:35;;;;;;;4.13;2.13;;;23.60;47.50;;;;;;20548;6895;121122;-87
2022/10/26 12:18:11;;;;;;;7.03;2.80;;;23.50;47.90;;;;;;20369;6896;309980;-83
2022/10/26 12:20:53;;;;;;;5.95;2.67;;;23.60;46.70;;;;;;20378;6897;311271;-84
2022/10/26 12:23:18;;;;;;;4.57;2.70;;;23.70;46.70;;;;;;20339;6897;282924;-86
2022/10/26 12:25:44;;;;;;;6.20;2.50;;;23.90;46.30;;;;;;20580;6897;118106;-83
2022/10/26 12:28:36;;;;;;;5.00;2.30;;;23.80;47.30;;;;;;20580;6897;116842;-84
2022/10/26 12:31:31;;;;;;;4.50;2.43;;;23.50;47.90;;;;;;20578;6897;117500;-83
2022/10/26 12:33:57;;;;;;;4.83;2.30;;;23.20;48.20;;;;;;20580;6897;123540;-83
2022/10/26 12:36:46;;;;;;;4.37;2.60;;;23.00;47.10;;;;;;20365;6897;279394;-82
2022/10/26 12:39:35;;;;;;;7.30;2.50;;;23.00;48.10;;;;;;20583;6897;117600;-85
2022/10/26 12:42:04;;;;;;;4.37;2.07;;;22.90;48.00;;;;;;20580;6897;118090;-84
2022/10/26 12:44:34;;;;;;;4.60;2.10;;;22.60;48.60;;;;;;20579;6897;116497;-84
2022/10/26 12:46:59;;;;;;;5.17;2.77;;;22.60;48.50;;;;;;20576;6897;118702;-83